createdAt,value
2018-11-28T00:01:48.370Z,17.87
2018-11-28T00:06:50.878Z,19.37
2018-11-28T00:11:53.377Z,17.77
2018-11-28T00:16:55.913Z,17.73
2018-11-28T00:21:58.557Z,17.20
2018-11-28T00:27:01.113Z,16.73
2018-11-28T00:32:03.608Z,16.33
2018-11-28T00:37:06.171Z,15.43
2018-11-28T00:42:08.718Z,15.73
2018-11-28T00:47:11.362Z,16.07
2018-11-28T00:52:13.895Z,17.53
2018-11-28T00:57:16.433Z,16.10
2018-11-28T01:02:18.962Z,16.23
2018-11-28T01:07:21.478Z,17.00
2018-11-28T01:12:24.004Z,15.07
2018-11-28T01:17:26.542Z,16.50
2018-11-28T01:22:29.080Z,16.57
2018-11-28T01:27:31.626Z,15.40
2018-11-28T01:32:34.142Z,15.57
2018-11-28T01:37:37.017Z,15.40
2018-11-28T01:42:40.234Z,14.43
2018-11-28T01:47:42.961Z,14.90
2018-11-28T01:52:45.531Z,15.03
2018-11-28T01:57:48.077Z,14.93
2018-11-28T02:02:52.179Z,13.37
2018-11-28T02:07:54.706Z,13.53
2018-11-28T02:12:57.211Z,13.37
2018-11-28T02:17:59.742Z,14.80
2018-11-28T02:23:02.278Z,12.73
2018-11-28T02:28:05.079Z,14.63
2018-11-28T02:33:07.505Z,14.03
2018-11-28T02:38:10.006Z,13.80
2018-11-28T02:43:12.596Z,14.07
2018-11-28T02:48:15.114Z,13.40
2018-11-28T02:53:17.635Z,14.13
2018-11-28T02:58:20.167Z,14.70
2018-11-28T03:03:22.724Z,13.93
2018-11-28T03:08:25.258Z,13.20
2018-11-28T03:13:27.810Z,14.27
2018-11-28T03:18:30.359Z,13.83
2018-11-28T03:23:32.786Z,13.77
2018-11-28T03:28:35.298Z,12.53
2018-11-28T03:33:37.838Z,12.80
2018-11-28T03:38:40.388Z,11.70
2018-11-28T03:43:42.934Z,12.60
2018-11-28T03:48:45.493Z,12.43
2018-11-28T03:53:48.039Z,10.63
2018-11-28T03:58:50.583Z,10.97
2018-11-28T04:03:53.122Z,10.80
2018-11-28T04:08:55.638Z,12.43
2018-11-28T04:13:58.189Z,11.83
2018-11-28T04:19:03.673Z,10.83
2018-11-28T04:24:06.226Z,12.00
2018-11-28T04:29:08.747Z,14.37
2018-11-28T04:34:11.292Z,14.43
2018-11-28T04:39:13.802Z,12.17
2018-11-28T04:44:16.661Z,16.47
2018-11-28T04:49:19.191Z,17.03
2018-11-28T04:54:21.701Z,20.10
2018-11-28T04:59:24.221Z,18.37
2018-11-28T05:04:26.755Z,12.57
2018-11-28T05:09:29.358Z,15.67
2018-11-28T05:14:31.879Z,13.17
2018-11-28T05:19:34.437Z,13.40
2018-11-28T05:24:37.002Z,14.60
2018-11-28T05:29:39.527Z,13.80
2018-11-28T05:34:42.138Z,14.00
2018-11-28T05:39:44.716Z,14.03
2018-11-28T05:44:47.242Z,16.70
2018-11-28T05:49:50.130Z,12.73
2018-11-28T05:54:52.719Z,15.63
2018-11-28T05:59:55.305Z,15.83
2018-11-28T06:04:57.851Z,16.60
2018-11-28T06:10:00.499Z,16.93
2018-11-28T06:15:03.248Z,17.62
2018-11-28T06:20:10.786Z,14.97
2018-11-28T06:25:16.175Z,14.70
2018-11-28T06:30:18.318Z,14.67
2018-11-28T06:35:20.878Z,14.40
2018-11-28T06:40:24.182Z,15.60
2018-11-28T06:45:25.959Z,15.03
2018-11-28T06:50:28.498Z,16.83
2018-11-28T06:55:31.086Z,16.20
2018-11-28T07:00:33.617Z,16.77
2018-11-28T07:05:36.219Z,17.77
2018-11-28T07:10:38.751Z,17.27
2018-11-28T07:15:41.298Z,18.33
2018-11-28T07:20:43.830Z,19.77
2018-11-28T07:25:46.386Z,19.03
2018-11-28T07:30:48.956Z,19.63
2018-11-28T07:35:51.502Z,18.20
2018-11-28T07:40:54.023Z,18.93
2018-11-28T07:45:56.586Z,19.77
2018-11-28T07:50:59.276Z,20.37
2018-11-28T07:56:01.835Z,20.10
2018-11-28T08:01:04.511Z,19.17
2018-11-28T08:06:07.082Z,19.97
2018-11-28T08:11:09.615Z,19.17
2018-11-28T08:16:12.182Z,19.47
2018-11-28T08:21:14.747Z,18.70
2018-11-28T08:26:17.290Z,15.63
2018-11-28T08:31:19.920Z,12.97
2018-11-28T08:36:22.458Z,13.30
2018-11-28T08:41:25.015Z,13.07
2018-11-28T08:46:27.543Z,14.73
2018-11-28T08:51:30.124Z,14.67
2018-11-28T08:56:32.679Z,14.73
2018-11-28T09:01:35.303Z,15.23
2018-11-28T09:06:37.831Z,15.67
2018-11-28T09:11:40.355Z,15.40
2018-11-28T09:16:42.899Z,14.93
2018-11-28T09:21:45.425Z,13.27
2018-11-28T09:26:47.962Z,14.60
2018-11-28T09:31:50.474Z,14.97
2018-11-28T09:36:53.027Z,13.17
2018-11-28T09:41:55.561Z,12.10
2018-11-28T09:46:58.070Z,12.83
2018-11-28T09:52:00.639Z,13.23
2018-11-28T09:57:03.212Z,13.73
2018-11-28T10:02:05.841Z,12.57
2018-11-28T10:07:08.494Z,12.83
2018-11-28T10:12:11.037Z,13.27
2018-11-28T10:17:13.595Z,10.80
2018-11-28T10:22:16.138Z,10.77
2018-11-28T10:27:18.670Z,10.53
2018-11-28T10:32:21.222Z,10.50
2018-11-28T10:37:23.758Z,9.40
2018-11-28T10:42:26.298Z,10.57
2018-11-28T10:47:28.835Z,10.60
2018-11-28T10:52:31.402Z,10.93
2018-11-28T10:57:33.965Z,10.73
2018-11-28T11:03:42.599Z,9.57
2018-11-28T11:08:50.751Z,10.20
2018-11-28T11:13:59.041Z,9.60
2018-11-28T11:19:01.703Z,8.73
2018-11-28T11:24:04.476Z,10.20
2018-11-28T11:29:07.089Z,10.00
2018-11-28T11:34:09.628Z,9.53
2018-11-28T11:39:12.170Z,9.20
2018-11-28T11:44:14.720Z,9.33
2018-11-28T11:49:17.286Z,8.57
2018-11-28T11:54:19.820Z,9.40
2018-11-28T11:59:22.386Z,8.93
2018-11-28T12:04:24.905Z,9.33
2018-11-28T12:09:27.466Z,9.80
2018-11-28T12:14:30.013Z,9.40
2018-11-28T12:19:32.585Z,8.80
2018-11-28T12:24:35.139Z,8.83
2018-11-28T12:29:37.689Z,9.90
2018-11-28T12:34:40.223Z,8.60
2018-11-28T12:39:42.825Z,9.13
2018-11-28T12:44:45.390Z,9.00
2018-11-28T12:49:47.954Z,8.70
2018-11-28T12:54:50.522Z,8.80
2018-11-28T12:59:53.086Z,9.20
2018-11-28T13:04:59.844Z,9.23
2018-11-28T13:09:58.255Z,8.77
2018-11-28T13:15:00.793Z,8.57
2018-11-28T13:20:04.552Z,9.13
2018-11-28T13:25:09.126Z,8.90
2018-11-28T13:30:19.346Z,10.30
2018-11-28T13:35:22.789Z,9.83
2018-11-28T13:40:25.331Z,10.93
2018-11-28T13:45:29.406Z,10.30
2018-11-28T13:50:31.953Z,11.20
2018-11-28T13:55:40.352Z,10.27
2018-11-28T14:00:41.403Z,10.57
2018-11-28T14:05:43.996Z,10.83
2018-11-28T14:10:46.861Z,9.93
2018-11-28T14:15:49.475Z,9.53
2018-11-28T14:20:52.107Z,9.90
2018-11-28T14:25:54.643Z,9.77
2018-11-28T14:30:57.210Z,9.90
2018-11-28T14:35:59.862Z,10.73
2018-11-28T14:41:02.427Z,11.40
2018-11-28T14:46:05.042Z,11.17
2018-11-28T14:51:07.638Z,10.67
2018-11-28T14:56:10.204Z,11.37
2018-11-28T15:01:12.767Z,11.30
2018-11-28T15:06:30.631Z,10.60
2018-11-28T15:11:33.219Z,10.87
2018-11-28T15:16:35.779Z,13.80
2018-11-28T15:21:38.341Z,13.63
2018-11-28T15:26:40.934Z,12.30
2018-11-28T15:31:43.562Z,11.87
2018-11-28T15:36:46.095Z,12.17
2018-11-28T15:41:48.621Z,12.70
2018-11-28T15:46:51.188Z,12.03
2018-11-28T15:51:53.724Z,12.60
2018-11-28T15:56:56.271Z,14.90
2018-11-28T16:01:58.844Z,14.70
2018-11-28T16:07:02.074Z,16.13
2018-11-28T16:12:04.658Z,14.27
2018-11-28T16:17:07.266Z,14.43
2018-11-28T16:22:09.837Z,13.23
2018-11-28T16:27:12.434Z,15.07
2018-11-28T16:32:15.073Z,17.70
2018-11-28T16:37:17.676Z,15.30
2018-11-28T16:42:20.303Z,13.90
2018-11-28T16:47:22.829Z,15.03
2018-11-28T16:52:25.655Z,14.27
2018-11-28T16:57:28.192Z,13.30
2018-11-28T17:02:30.774Z,14.67
2018-11-28T17:07:33.306Z,17.20
2018-11-28T17:12:35.874Z,12.83
2018-11-28T17:17:39.047Z,13.40
2018-11-28T17:22:41.742Z,13.10
2018-11-28T17:27:44.296Z,12.47
2018-11-28T17:32:46.874Z,12.60
2018-11-28T17:37:49.668Z,13.17
2018-11-28T17:42:54.362Z,11.97
2018-11-28T17:47:56.919Z,11.80
2018-11-28T17:53:02.203Z,12.37
2018-11-28T17:58:05.287Z,11.70
2018-11-28T18:03:07.851Z,11.70
2018-11-28T18:08:10.591Z,11.60
2018-11-28T18:13:14.130Z,11.33
2018-11-28T18:18:18.874Z,11.10
2018-11-28T18:23:21.468Z,10.73
2018-11-28T18:28:24.086Z,11.30
2018-11-28T18:33:26.683Z,10.73
2018-11-28T18:38:29.294Z,11.63
2018-11-28T18:43:31.890Z,11.37
2018-11-28T18:48:34.495Z,10.67
2018-11-28T18:53:37.832Z,10.97
2018-11-28T18:58:40.411Z,11.93
2018-11-28T19:03:42.975Z,12.30
2018-11-28T19:08:45.612Z,11.90
2018-11-28T19:13:49.004Z,11.33
2018-11-28T19:18:51.509Z,12.00
2018-11-28T19:23:54.001Z,11.83
2018-11-28T19:28:56.561Z,11.13
2018-11-28T19:33:59.172Z,11.40
2018-11-28T19:39:01.903Z,11.63
2018-11-28T19:44:05.303Z,10.63
2018-11-28T19:49:07.894Z,9.70
2018-11-28T19:54:10.454Z,9.60
2018-11-28T19:59:13.059Z,9.93
2018-11-28T20:04:16.463Z,9.53
2018-11-28T20:09:20.953Z,9.23
2018-11-28T20:14:23.521Z,8.63
2018-11-28T20:19:26.099Z,8.53
2018-11-28T20:24:28.709Z,8.87
2018-11-28T20:29:31.307Z,8.00
2018-11-28T20:34:33.880Z,8.23
2018-11-28T20:39:36.514Z,8.90
2018-11-28T20:44:39.096Z,9.20
2018-11-28T20:49:41.698Z,8.77
2018-11-28T20:54:44.297Z,8.13
2018-11-28T20:59:46.915Z,9.40
2018-11-28T21:04:49.583Z,8.77
2018-11-28T21:09:54.003Z,8.53
2018-11-28T21:14:56.566Z,8.43
2018-11-28T21:19:59.296Z,7.37
2018-11-28T21:25:01.990Z,8.30
2018-11-28T21:30:10.379Z,7.87
2018-11-28T21:35:15.198Z,8.67
2018-11-28T21:40:17.786Z,8.37
2018-11-28T21:45:21.183Z,9.17
2018-11-28T21:50:23.722Z,8.80
2018-11-28T21:55:26.267Z,9.13
2018-11-28T22:00:28.834Z,8.27
2018-11-28T22:05:31.386Z,8.33
2018-11-28T22:10:33.950Z,7.93
2018-11-28T22:15:36.526Z,8.40
2018-11-28T22:20:39.079Z,9.20
2018-11-28T22:25:41.609Z,9.50
2018-11-28T22:30:44.171Z,8.40
2018-11-28T22:35:46.713Z,8.43
2018-11-28T22:40:49.326Z,8.40
2018-11-28T22:45:51.838Z,7.67
2018-11-28T22:50:54.372Z,7.53
2018-11-28T22:55:56.945Z,7.67
2018-11-28T23:01:05.133Z,8.57
2018-11-28T23:06:07.674Z,8.90
2018-11-28T23:11:10.213Z,8.87
2018-11-28T23:16:12.758Z,8.80
2018-11-28T23:21:15.320Z,7.80
2018-11-28T23:26:17.941Z,7.70
2018-11-28T23:31:20.463Z,7.27
2018-11-28T23:36:23.006Z,7.43
2018-11-28T23:41:25.561Z,6.77
2018-11-28T23:46:28.098Z,7.20
2018-11-28T23:51:30.619Z,7.67
2018-11-28T23:56:33.158Z,7.63
